sensor_id;sensor_type;location;lat;lon;timestamp;pressure;altitude;pressure_sealevel;temperature;humidity
56632;BME280;42503;39.928;-75.152;2023-05-08T00:08:16;100961.41;;;23.28;45.37
56632;BME280;42503;39.928;-75.152;2023-05-08T00:18:19;100955.00;;;23.28;45.36
56632;BME280;42503;39.928;-75.152;2023-05-08T00:28:21;100923.41;;;23.27;45.43
56632;BME280;42503;39.928;-75.152;2023-05-08T00:38:37;100906.38;;;23.29;45.67
56632;BME280;42503;39.928;-75.152;2023-05-08T00:48:44;100883.56;;;23.22;45.63
56632;BME280;42503;39.928;-75.152;2023-05-08T00:58:46;100881.34;;;23.24;45.48
56632;BME280;42503;39.928;-75.152;2023-05-08T01:08:48;100878.72;;;23.32;45.87
56632;BME280;42503;39.928;-75.152;2023-05-08T01:50:06;100916.00;;;23.42;45.49
56632;BME280;42503;39.928;-75.152;2023-05-08T02:00:11;100869.63;;;23.22;45.46
56632;BME280;42503;39.928;-75.152;2023-05-08T02:10:16;100889.13;;;23.46;45.70
56632;BME280;42503;39.928;-75.152;2023-05-08T02:20:20;100885.47;;;23.50;45.69
56632;BME280;42503;39.928;-75.152;2023-05-08T02:30:24;100890.19;;;23.50;45.61
56632;BME280;42503;39.928;-75.152;2023-05-08T02:40:30;100878.81;;;23.46;45.30
56632;BME280;42503;39.928;-75.152;2023-05-08T02:50:39;100866.19;;;23.49;45.28
56632;BME280;42503;39.928;-75.152;2023-05-08T03:01:15;100858.94;;;23.48;45.69
56632;BME280;42503;39.928;-75.152;2023-05-08T03:11:25;100840.16;;;23.53;45.97
56632;BME280;42503;39.928;-75.152;2023-05-08T03:21:31;100792.44;;;23.50;46.14
56632;BME280;42503;39.928;-75.152;2023-05-08T03:31:33;100788.00;;;23.49;46.14
56632;BME280;42503;39.928;-75.152;2023-05-08T03:41:39;100803.75;;;23.58;46.29
56632;BME280;42503;39.928;-75.152;2023-05-08T03:51:41;100807.38;;;23.59;46.56
56632;BME280;42503;39.928;-75.152;2023-05-08T04:01:49;100811.88;;;23.60;46.44
56632;BME280;42503;39.928;-75.152;2023-05-08T04:12:25;100806.34;;;23.55;46.56
56632;BME280;42503;39.928;-75.152;2023-05-08T04:22:32;100811.25;;;23.63;46.34
56632;BME280;42503;39.928;-75.152;2023-05-08T04:32:36;100779.69;;;23.63;46.43
56632;BME280;42503;39.928;-75.152;2023-05-08T04:42:41;100777.72;;;23.63;46.34
56632;BME280;42503;39.928;-75.152;2023-05-08T04:52:43;100780.00;;;23.61;46.47
56632;BME280;42503;39.928;-75.152;2023-05-08T05:02:44;100741.41;;;23.63;46.59
56632;BME280;42503;39.928;-75.152;2023-05-08T05:12:46;100726.78;;;23.52;46.54
56632;BME280;42503;39.928;-75.152;2023-05-08T05:22:47;100750.34;;;23.65;46.25
56632;BME280;42503;39.928;-75.152;2023-05-08T05:32:49;100729.72;;;23.61;46.41
56632;BME280;42503;39.928;-75.152;2023-05-08T05:42:53;100711.75;;;23.67;46.60
56632;BME280;42503;39.928;-75.152;2023-05-08T05:52:54;100698.09;;;23.66;46.40
56632;BME280;42503;39.928;-75.152;2023-05-08T06:02:56;100665.97;;;23.63;46.47
56632;BME280;42503;39.928;-75.152;2023-05-08T06:12:57;100655.06;;;23.67;46.45
56632;BME280;42503;39.928;-75.152;2023-05-08T06:22:58;100643.22;;;23.56;46.37
56632;BME280;42503;39.928;-75.152;2023-05-08T06:33:03;100661.47;;;23.67;46.26
56632;BME280;42503;39.928;-75.152;2023-05-08T06:43:06;100660.31;;;23.68;46.52
56632;BME280;42503;39.928;-75.152;2023-05-08T06:53:10;100674.94;;;23.65;46.87
56632;BME280;42503;39.928;-75.152;2023-05-08T07:03:12;100693.25;;;23.71;47.27
56632;BME280;42503;39.928;-75.152;2023-05-08T07:13:16;100679.28;;;23.71;46.93
56632;BME280;42503;39.928;-75.152;2023-05-08T07:23:21;100695.22;;;23.71;46.57
56632;BME280;42503;39.928;-75.152;2023-05-08T07:33:22;100688.31;;;23.63;46.49
56632;BME280;42503;39.928;-75.152;2023-05-08T07:43:27;100691.59;;;23.70;47.20
56632;BME280;42503;39.928;-75.152;2023-05-08T07:53:28;100690.47;;;23.71;47.10
56632;BME280;42503;39.928;-75.152;2023-05-08T08:03:29;100710.00;;;23.71;46.93
56632;BME280;42503;39.928;-75.152;2023-05-08T08:13:34;100669.66;;;23.45;47.01
56632;BME280;42503;39.928;-75.152;2023-05-08T08:23:35;100728.53;;;23.67;46.53
56632;BME280;42503;39.928;-75.152;2023-05-08T08:33:36;100728.53;;;23.67;46.85
56632;BME280;42503;39.928;-75.152;2023-05-08T08:43:38;100724.59;;;23.68;47.04
56632;BME280;42503;39.928;-75.152;2023-05-08T08:53:45;100715.38;;;23.68;47.05
56632;BME280;42503;39.928;-75.152;2023-05-08T09:03:49;100690.47;;;23.71;47.32
56632;BME280;42503;39.928;-75.152;2023-05-08T09:13:51;100683.22;;;23.70;46.67
56632;BME280;42503;39.928;-75.152;2023-05-08T09:33:59;100696.03;;;23.71;47.19
56632;BME280;42503;39.928;-75.152;2023-05-08T09:44:05;100694.41;;;23.70;47.39
56632;BME280;42503;39.928;-75.152;2023-05-08T09:54:16;100688.91;;;23.65;47.10
56632;BME280;42503;39.928;-75.152;2023-05-08T10:04:30;100648.22;;;23.40;46.63
56632;BME280;42503;39.928;-75.152;2023-05-08T10:14:32;100675.44;;;23.67;46.84
56632;BME280;42503;39.928;-75.152;2023-05-08T10:24:37;100670.41;;;23.69;46.69
56632;BME280;42503;39.928;-75.152;2023-05-08T10:34:42;100662.41;;;23.44;46.46
56632;BME280;42503;39.928;-75.152;2023-05-08T10:44:45;100711.75;;;23.67;47.21
56632;BME280;42503;39.928;-75.152;2023-05-08T10:54:50;100717.34;;;23.67;46.82
56632;BME280;42503;39.928;-75.152;2023-05-08T11:05:16;100750.59;;;23.64;46.77
56632;BME280;42503;39.928;-75.152;2023-05-08T11:15:37;100724.44;;;23.41;46.66
56632;BME280;42503;39.928;-75.152;2023-05-08T11:25:43;100785.53;;;23.66;46.73
56632;BME280;42503;39.928;-75.152;2023-05-08T11:35:49;100814.84;;;23.69;46.57
56632;BME280;42503;39.928;-75.152;2023-05-08T11:45:52;100813.97;;;23.68;46.61
56632;BME280;42503;39.928;-75.152;2023-05-08T11:55:57;100845.25;;;23.70;46.51
56632;BME280;42503;39.928;-75.152;2023-05-08T12:06:01;100883.53;;;23.70;46.51
56632;BME280;42503;39.928;-75.152;2023-05-08T12:16:05;100768.59;;;23.01;46.39
56632;BME280;42503;39.928;-75.152;2023-05-08T12:26:10;100883.03;;;23.63;46.43
56632;BME280;42503;39.928;-75.152;2023-05-08T12:36:12;100881.03;;;23.68;46.59
56632;BME280;42503;39.928;-75.152;2023-05-08T12:46:17;100878.22;;;23.68;46.28
56632;BME280;42503;39.928;-75.152;2023-05-08T12:56:21;100896.06;;;23.72;46.54
56632;BME280;42503;39.928;-75.152;2023-05-08T13:06:22;100903.84;;;23.75;46.24
56632;BME280;42503;39.928;-75.152;2023-05-08T13:16:24;100915.84;;;23.76;46.40
56632;BME280;42503;39.928;-75.152;2023-05-08T13:26:28;100832.16;;;23.28;46.21
56632;BME280;42503;39.928;-75.152;2023-05-08T13:36:29;100916.09;;;23.79;46.17
56632;BME280;42503;39.928;-75.152;2023-05-08T13:46:31;100762.09;;;23.05;46.10
56632;BME280;42503;39.928;-75.152;2023-05-08T13:56:42;100867.69;;;23.65;45.94
56632;BME280;42503;39.928;-75.152;2023-05-08T14:06:43;100880.66;;;23.75;46.11
56632;BME280;42503;39.928;-75.152;2023-05-08T14:16:48;100875.25;;;23.83;45.93
56632;BME280;42503;39.928;-75.152;2023-05-08T14:26:53;100882.16;;;23.86;45.90
56632;BME280;42503;39.928;-75.152;2023-05-08T14:37:05;100886.94;;;23.86;45.87
56632;BME280;42503;39.928;-75.152;2023-05-08T14:47:06;100909.84;;;23.88;45.80
56632;BME280;42503;39.928;-75.152;2023-05-08T14:57:08;100899.16;;;23.90;45.62
56632;BME280;42503;39.928;-75.152;2023-05-08T15:07:12;100890.88;;;23.84;45.84
56632;BME280;42503;39.928;-75.152;2023-05-08T15:17:17;100891.19;;;23.83;45.37
56632;BME280;42503;39.928;-75.152;2023-05-08T15:27:18;100868.31;;;23.57;45.63
56632;BME280;42503;39.928;-75.152;2023-05-08T15:37:19;100922.91;;;23.92;45.57
56632;BME280;42503;39.928;-75.152;2023-05-08T15:47:21;100913.59;;;23.97;45.87
56632;BME280;42503;39.928;-75.152;2023-05-08T15:57:27;100909.09;;;24.01;45.95
56632;BME280;42503;39.928;-75.152;2023-05-08T16:07:28;100923.06;;;24.01;45.71
56632;BME280;42503;39.928;-75.152;2023-05-08T16:17:32;100916.84;;;24.04;45.82
56632;BME280;42503;39.928;-75.152;2023-05-08T16:27:34;100906.50;;;24.04;45.34
56632;BME280;42503;39.928;-75.152;2023-05-08T16:37:38;100887.22;;;24.03;45.38
56632;BME280;42503;39.928;-75.152;2023-05-08T16:47:39;100894.25;;;24.00;45.44
56632;BME280;42503;39.928;-75.152;2023-05-08T16:57:41;100867.16;;;24.01;45.56
56632;BME280;42503;39.928;-75.152;2023-05-08T17:07:42;100850.38;;;24.01;45.46
56632;BME280;42503;39.928;-75.152;2023-05-08T17:17:43;100845.31;;;24.03;45.54
56632;BME280;42503;39.928;-75.152;2023-05-08T17:27:47;100836.91;;;24.03;45.60
56632;BME280;42503;39.928;-75.152;2023-05-08T17:37:49;100816.22;;;24.04;45.52
56632;BME280;42503;39.928;-75.152;2023-05-08T17:47:53;100692.63;;;23.42;45.43
56632;BME280;42503;39.928;-75.152;2023-05-08T17:57:54;100820.59;;;24.10;45.68
56632;BME280;42503;39.928;-75.152;2023-05-08T18:07:59;100767.91;;;23.84;45.69
56632;BME280;42503;39.928;-75.152;2023-05-08T18:18:01;100744.00;;;23.78;45.54
56632;BME280;42503;39.928;-75.152;2023-05-08T18:28:05;100808.78;;;24.13;45.54
56632;BME280;42503;39.928;-75.152;2023-05-08T18:38:06;100780.41;;;24.06;45.45
56632;BME280;42503;39.928;-75.152;2023-05-08T18:48:08;100768.97;;;23.89;45.57
56632;BME280;42503;39.928;-75.152;2023-05-08T18:58:10;100757.91;;;23.97;45.29
56632;BME280;42503;39.928;-75.152;2023-05-08T19:08:18;100756.03;;;23.93;45.50
56632;BME280;42503;39.928;-75.152;2023-05-08T19:18:19;100748.53;;;24.07;45.46
56632;BME280;42503;39.928;-75.152;2023-05-08T19:28:20;100732.31;;;23.90;45.66
56632;BME280;42503;39.928;-75.152;2023-05-08T19:38:24;100777.03;;;24.23;45.32
56632;BME280;42503;39.928;-75.152;2023-05-08T19:48:25;100778.38;;;24.25;45.53
56632;BME280;42503;39.928;-75.152;2023-05-08T19:58:27;100763.88;;;24.23;45.12
56632;BME280;42503;39.928;-75.152;2023-05-08T20:08:28;100707.28;;;23.99;45.44
56632;BME280;42503;39.928;-75.152;2023-05-08T20:18:29;100753.72;;;24.27;45.67
56632;BME280;42503;39.928;-75.152;2023-05-08T20:28:34;100761.19;;;24.32;45.41
56632;BME280;42503;39.928;-75.152;2023-05-08T20:38:35;100748.34;;;24.31;45.54
56632;BME280;42503;39.928;-75.152;2023-05-08T20:48:37;100740.75;;;24.18;45.55
56632;BME280;42503;39.928;-75.152;2023-05-08T20:58:38;100719.09;;;24.09;45.60
56632;BME280;42503;39.928;-75.152;2023-05-08T21:08:39;100763.47;;;24.30;45.59
56632;BME280;42503;39.928;-75.152;2023-05-08T21:18:41;100769.91;;;24.30;45.81
56632;BME280;42503;39.928;-75.152;2023-05-08T21:28:42;100734.44;;;24.12;45.63
56632;BME280;42503;39.928;-75.152;2023-05-08T21:38:49;100760.56;;;24.21;45.68
56632;BME280;42503;39.928;-75.152;2023-05-08T21:48:54;100777.78;;;24.28;45.59
56632;BME280;42503;39.928;-75.152;2023-05-08T21:58:56;100792.88;;;24.27;45.82
56632;BME280;42503;39.928;-75.152;2023-05-08T22:08:57;100781.09;;;24.30;45.80
56632;BME280;42503;39.928;-75.152;2023-05-08T22:18:59;100757.16;;;24.24;46.08
56632;BME280;42503;39.928;-75.152;2023-05-08T22:29:00;100755.41;;;24.28;46.00
56632;BME280;42503;39.928;-75.152;2023-05-08T22:39:10;100751.66;;;24.19;45.86
56632;BME280;42503;39.928;-75.152;2023-05-08T22:49:11;100760.69;;;24.30;46.11
56632;BME280;42503;39.928;-75.152;2023-05-08T22:59:13;100770.41;;;24.32;45.93
56632;BME280;42503;39.928;-75.152;2023-05-08T23:09:14;100763.97;;;24.32;45.73
56632;BME280;42503;39.928;-75.152;2023-05-08T23:19:16;100769.56;;;24.32;45.74
56632;BME280;42503;39.928;-75.152;2023-05-08T23:29:17;100786.06;;;24.33;45.85
56632;BME280;42503;39.928;-75.152;2023-05-08T23:39:19;100799.69;;;24.21;46.07
56632;BME280;42503;39.928;-75.152;2023-05-08T23:49:20;100806.56;;;24.29;45.93
56632;BME280;42503;39.928;-75.152;2023-05-08T23:59:21;100818.34;;;24.26;46.29
